Time;durP1;ratioP1;P1;durP2;ratioP2;P2;SDS_P1;SDS_P2;PMS_P1;PMS_P2;Temp;Humidity;BMP_temperature;BMP_pressure;BME280_temperature;BME280_humidity;BME280_pressure;Samples;Min_cycle;Max_cycle;Signal;HPM_P1;HPM_P2
2023/07/17 00:00:16;;;;;;;5.53;4.20;;;;;;;;;;5015844;28;20482;-58
2023/07/17 00:02:43;;;;;;;3.93;3.60;;;;;;;;;;5016104;28;20489;-58
2023/07/17 00:05:10;;;;;;;3.93;3.63;;;;;;;;;;5015972;28;20453;-57
2023/07/17 00:07:37;;;;;;;3.93;3.63;;;;;;;;;;5015902;28;20529;-58
2023/07/17 00:10:06;;;;;;;4.53;3.10;;;;;;;;;;5015815;28;20446;-57
2023/07/17 00:12:33;;;;;;;4.80;3.60;;;;;;;;;;5015701;28;20455;-58
2023/07/17 00:15:04;;;;;;;3.00;2.70;;;;;;;;;;5015870;28;20446;-58
2023/07/17 00:17:31;;;;;;;4.00;3.23;;;;;;;;;;5015806;28;20453;-57
2023/07/17 00:19:58;;;;;;;3.00;2.73;;;;;;;;;;5015591;28;20524;-57
2023/07/17 00:22:25;;;;;;;3.60;3.30;;;;;;;;;;5015610;28;20542;-57
2023/07/17 00:24:53;;;;;;;3.80;3.40;;;;;;;;;;5015537;28;20550;-58
2023/07/17 00:27:21;;;;;;;4.23;3.63;;;;;;;;;;5015293;28;20496;-58
2023/07/17 00:29:48;;;;;;;3.63;3.33;;;;;;;;;;5015433;28;20551;-58
2023/07/17 00:32:15;;;;;;;4.30;3.90;;;;;;;;;;5015444;28;20540;-58
2023/07/17 00:34:42;;;;;;;8.27;3.73;;;;;;;;;;5015353;28;20511;-58
2023/07/17 00:37:09;;;;;;;3.83;3.50;;;;;;;;;;5015235;28;20748;-57
2023/07/17 00:39:36;;;;;;;5.23;3.63;;;;;;;;;;5014986;28;20485;-58
2023/07/17 00:42:03;;;;;;;4.50;4.17;;;;;;;;;;5015377;28;20454;-57
2023/07/17 00:44:32;;;;;;;4.70;3.73;;;;;;;;;;5015259;28;20454;-57
2023/07/17 00:46:59;;;;;;;4.17;3.53;;;;;;;;;;5015124;28;20480;-58
2023/07/17 00:49:29;;;;;;;3.60;3.30;;;;;;;;;;5015045;28;20486;-57
2023/07/17 00:51:57;;;;;;;3.50;3.10;;;;;;;;;;5014982;28;20788;-58
2023/07/17 00:54:24;;;;;;;3.47;3.20;;;;;;;;;;5014816;28;20457;-57
2023/07/17 00:56:51;;;;;;;4.27;3.43;;;;;;;;;;5014794;28;20564;-57
2023/07/17 00:59:18;;;;;;;3.70;3.40;;;;;;;;;;5014646;28;20511;-58
2023/07/17 01:01:47;;;;;;;3.70;3.50;;;;;;;;;;5014775;28;20456;-57
2023/07/17 01:04:14;;;;;;;3.90;3.60;;;;;;;;;;5014693;28;20560;-57
2023/07/17 01:06:41;;;;;;;3.70;3.40;;;;;;;;;;5014663;28;20809;-58
2023/07/17 01:09:09;;;;;;;3.53;3.20;;;;;;;;;;5014500;28;20540;-57
2023/07/17 01:11:36;;;;;;;4.63;3.10;;;;;;;;;;5014737;28;20551;-58
2023/07/17 01:14:03;;;;;;;5.43;3.60;;;;;;;;;;5014676;28;20455;-58
2023/07/17 01:16:30;;;;;;;7.10;3.80;;;;;;;;;;5014522;28;20461;-57
2023/07/17 01:18:58;;;;;;;4.57;4.10;;;;;;;;;;5014429;28;20477;-57
2023/07/17 01:21:26;;;;;;;3.90;3.60;;;;;;;;;;5014279;28;20453;-58
2023/07/17 01:23:56;;;;;;;5.10;3.87;;;;;;;;;;5014564;28;20464;-58
2023/07/17 01:26:23;;;;;;;6.03;3.70;;;;;;;;;;5014589;28;20449;-58
2023/07/17 01:28:50;;;;;;;4.03;3.73;;;;;;;;;;5014363;28;20451;-58
2023/07/17 01:31:18;;;;;;;4.47;3.70;;;;;;;;;;5014095;28;20945;-57
2023/07/17 01:33:44;;;;;;;3.97;3.57;;;;;;;;;;5014178;28;20464;-58
2023/07/17 01:36:12;;;;;;;5.00;3.10;;;;;;;;;;5014144;28;20452;-58
2023/07/17 01:38:39;;;;;;;4.27;3.87;;;;;;;;;;5014008;28;20957;-57
2023/07/17 01:41:07;;;;;;;4.27;3.90;;;;;;;;;;5013708;28;20453;-58
2023/07/17 01:43:34;;;;;;;4.07;3.77;;;;;;;;;;5014078;28;20457;-57
2023/07/17 01:46:02;;;;;;;6.60;3.47;;;;;;;;;;5014073;28;20471;-58
2023/07/17 01:48:29;;;;;;;4.47;3.37;;;;;;;;;;5013893;28;20816;-58
2023/07/17 01:50:56;;;;;;;3.90;3.60;;;;;;;;;;5014115;28;20528;-58
2023/07/17 01:53:23;;;;;;;4.20;3.80;;;;;;;;;;5014003;28;20957;-59
2023/07/17 01:55:50;;;;;;;3.97;3.67;;;;;;;;;;5013970;28;20453;-59
2023/07/17 01:58:18;;;;;;;4.60;4.10;;;;;;;;;;5013903;28;20461;-58
2023/07/17 02:00:45;;;;;;;3.80;3.60;;;;;;;;;;5013641;28;20842;-57
2023/07/17 02:03:12;;;;;;;3.60;3.37;;;;;;;;;;5013604;28;20451;-57
2023/07/17 02:05:39;;;;;;;4.00;3.70;;;;;;;;;;5013839;28;20453;-57
2023/07/17 02:08:07;;;;;;;3.90;3.50;;;;;;;;;;5013731;28;20453;-58
2023/07/17 02:10:34;;;;;;;5.77;4.10;;;;;;;;;;5013640;28;20465;-58
2023/07/17 02:13:01;;;;;;;4.10;3.67;;;;;;;;;;5013562;28;20541;-58
2023/07/17 02:15:29;;;;;;;4.10;3.80;;;;;;;;;;5013467;28;20457;-58
2023/07/17 02:17:56;;;;;;;3.97;3.73;;;;;;;;;;5013375;28;20827;-58
2023/07/17 02:20:23;;;;;;;5.23;3.17;;;;;;;;;;5013301;28;20485;-58
2023/07/17 02:22:50;;;;;;;3.77;3.37;;;;;;;;;;5013550;28;20453;-57
2023/07/17 02:25:17;;;;;;;3.57;3.37;;;;;;;;;;5013279;28;20968;-57
2023/07/17 02:27:44;;;;;;;5.40;4.40;;;;;;;;;;5013386;28;20547;-57
2023/07/17 02:30:12;;;;;;;3.50;3.30;;;;;;;;;;5013765;28;20453;-58
2023/07/17 02:32:40;;;;;;;4.70;3.70;;;;;;;;;;5013441;28;20458;-57
2023/07/17 02:35:08;;;;;;;3.40;3.20;;;;;;;;;;5013428;28;20629;-58
2023/07/17 02:37:35;;;;;;;4.83;3.80;;;;;;;;;;5013227;28;20456;-57
2023/07/17 02:40:05;;;;;;;5.07;3.63;;;;;;;;;;5013265;28;20489;-57
2023/07/17 02:42:32;;;;;;;4.30;3.77;;;;;;;;;;5013089;28;20861;-56
2023/07/17 02:45:01;;;;;;;5.10;4.70;;;;;;;;;;5013336;28;20848;-57
2023/07/17 02:47:28;;;;;;;3.87;3.57;;;;;;;;;;5013314;28;20961;-57
2023/07/17 02:49:56;;;;;;;3.67;3.47;;;;;;;;;;5013152;28;20541;-58
2023/07/17 02:52:23;;;;;;;5.50;5.00;;;;;;;;;;5013175;28;20457;-56
2023/07/17 02:54:50;;;;;;;4.30;3.90;;;;;;;;;;5015962;28;20460;-57
2023/07/17 02:57:17;;;;;;;5.50;3.87;;;;;;;;;;5016847;28;20481;-58
2023/07/17 02:59:44;;;;;;;4.60;4.20;;;;;;;;;;5017161;28;20481;-56
2023/07/17 03:02:11;;;;;;;4.03;3.60;;;;;;;;;;5016950;28;21018;-58
2023/07/17 03:04:38;;;;;;;4.30;3.90;;;;;;;;;;5017067;28;20472;-57
2023/07/17 03:07:06;;;;;;;4.10;3.70;;;;;;;;;;5017022;28;20492;-56
2023/07/17 03:09:33;;;;;;;4.53;4.03;;;;;;;;;;5016908;28;20547;-57
2023/07/17 03:12:00;;;;;;;3.90;3.70;;;;;;;;;;5016816;28;20545;-57
2023/07/17 03:14:27;;;;;;;4.50;4.20;;;;;;;;;;5016999;28;20893;-57
2023/07/17 03:16:54;;;;;;;4.00;3.70;;;;;;;;;;5016829;28;20449;-57
2023/07/17 03:19:22;;;;;;;4.53;4.20;;;;;;;;;;5016714;28;20537;-58
2023/07/17 03:21:48;;;;;;;4.20;3.80;;;;;;;;;;5016750;28;20455;-57
2023/07/17 03:24:17;;;;;;;5.07;3.67;;;;;;;;;;5016569;28;20451;-57
2023/07/17 03:26:45;;;;;;;6.17;4.00;;;;;;;;;;5016828;28;20458;-57
2023/07/17 03:29:12;;;;;;;5.97;4.00;;;;;;;;;;5016723;28;20581;-57
2023/07/17 03:31:39;;;;;;;4.07;3.67;;;;;;;;;;5016603;28;20450;-57
2023/07/17 03:34:05;;;;;;;4.10;3.40;;;;;;;;;;5016509;28;20475;-56
2023/07/17 03:36:32;;;;;;;4.67;4.27;;;;;;;;;;5016343;28;20877;-57
2023/07/17 03:38:59;;;;;;;4.10;3.40;;;;;;;;;;5016285;28;20448;-58
2023/07/17 03:41:28;;;;;;;4.27;3.87;;;;;;;;;;5016377;28;20496;-58
2023/07/17 03:43:58;;;;;;;5.77;3.70;;;;;;;;;;5016437;28;20648;-58
2023/07/17 03:46:25;;;;;;;4.87;3.60;;;;;;;;;;5016309;28;20539;-57
2023/07/17 03:48:52;;;;;;;4.57;4.17;;;;;;;;;;5016208;28;20813;-57
2023/07/17 03:51:18;;;;;;;4.23;3.50;;;;;;;;;;5016116;28;20552;-58
2023/07/17 03:53:45;;;;;;;4.97;3.40;;;;;;;;;;5016020;28;20460;-58
2023/07/17 03:56:12;;;;;;;4.00;3.70;;;;;;;;;;5016002;28;20574;-57
2023/07/17 03:58:41;;;;;;;3.87;3.53;;;;;;;;;;5016080;28;20460;-58
2023/07/17 04:01:07;;;;;;;4.60;3.60;;;;;;;;;;5015950;28;20482;-58
2023/07/17 04:03:34;;;;;;;3.90;3.60;;;;;;;;;;5015983;28;20451;-57
2023/07/17 04:06:01;;;;;;;4.37;3.47;;;;;;;;;;5015231;28;20468;-58
2023/07/17 04:08:28;;;;;;;3.90;3.53;;;;;;;;;;5015958;28;20549;-58
2023/07/17 04:10:55;;;;;;;3.97;3.57;;;;;;;;;;5015884;28;20460;-58
2023/07/17 04:13:22;;;;;;;3.57;3.30;;;;;;;;;;5015754;28;20534;-58
2023/07/17 04:15:50;;;;;;;4.90;4.07;;;;;;;;;;5015748;28;20450;-58
2023/07/17 04:18:17;;;;;;;4.43;3.70;;;;;;;;;;5015701;28;21147;-58
2023/07/17 04:20:44;;;;;;;4.50;3.80;;;;;;;;;;5015727;28;20493;-57
2023/07/17 04:23:12;;;;;;;4.90;4.20;;;;;;;;;;5015616;28;20459;-57
2023/07/17 04:25:40;;;;;;;4.30;4.00;;;;;;;;;;5015583;28;20556;-58
2023/07/17 04:28:07;;;;;;;4.27;3.97;;;;;;;;;;5015526;28;20462;-58
2023/07/17 04:30:36;;;;;;;4.03;3.67;;;;;;;;;;5015425;28;20453;-58
2023/07/17 04:33:05;;;;;;;4.70;3.93;;;;;;;;;;5015250;28;20545;-57
2023/07/17 04:35:36;;;;;;;5.77;3.80;;;;;;;;;;5015475;28;20558;-57
2023/07/17 04:38:03;;;;;;;8.27;4.30;;;;;;;;;;5015396;28;20493;-58
2023/07/17 04:40:30;;;;;;;4.40;4.07;;;;;;;;;;5015165;28;20576;-57
2023/07/17 04:43:00;;;;;;;5.10;3.77;;;;;;;;;;5015193;28;20457;-58
2023/07/17 04:45:26;;;;;;;4.23;3.73;;;;;;;;;;5014953;28;20976;-59
2023/07/17 04:47:53;;;;;;;4.20;3.73;;;;;;;;;;5015227;28;20449;-58
2023/07/17 04:50:24;;;;;;;5.20;3.20;;;;;;;;;;5015191;28;20580;-58
2023/07/17 04:52:51;;;;;;;3.73;3.20;;;;;;;;;;5015088;28;20477;-58
2023/07/17 04:55:18;;;;;;;4.10;3.70;;;;;;;;;;5014965;28;20456;-58
2023/07/17 04:57:45;;;;;;;3.90;3.60;;;;;;;;;;5015171;28;20474;-58
2023/07/17 05:00:13;;;;;;;3.63;3.37;;;;;;;;;;5014652;28;20486;-58
2023/07/17 05:02:40;;;;;;;4.23;3.93;;;;;;;;;;5014957;28;20589;-58
2023/07/17 05:05:07;;;;;;;4.60;4.20;;;;;;;;;;5014937;28;20814;-59
2023/07/17 05:07:35;;;;;;;4.60;4.13;;;;;;;;;;5014808;28;20450;-57
2023/07/17 05:10:03;;;;;;;4.30;3.80;;;;;;;;;;5014645;28;20549;-58
2023/07/17 05:12:30;;;;;;;4.37;4.03;;;;;;;;;;5014573;28;20854;-59
2023/07/17 05:14:56;;;;;;;3.90;3.60;;;;;;;;;;5014462;28;21003;-58
2023/07/17 05:17:23;;;;;;;4.40;4.00;;;;;;;;;;5013813;28;20446;-58
2023/07/17 05:19:50;;;;;;;5.27;4.07;;;;;;;;;;5014543;28;20456;-59
2023/07/17 05:22:17;;;;;;;4.20;3.70;;;;;;;;;;5014402;28;20806;-58
2023/07/17 05:24:45;;;;;;;4.97;4.20;;;;;;;;;;5014475;28;20450;-58
2023/07/17 05:27:12;;;;;;;5.00;4.60;;;;;;;;;;5014205;28;20461;-58
2023/07/17 05:29:39;;;;;;;4.03;3.67;;;;;;;;;;5014470;28;20446;-58
2023/07/17 05:32:07;;;;;;;6.10;4.00;;;;;;;;;;5014326;28;20513;-58
2023/07/17 05:34:34;;;;;;;6.43;4.07;;;;;;;;;;5014307;28;20446;-58
2023/07/17 05:37:01;;;;;;;3.90;3.50;;;;;;;;;;5014238;28;20812;-58
2023/07/17 05:39:28;;;;;;;6.73;4.17;;;;;;;;;;5014068;28;20454;-59
2023/07/17 05:41:56;;;;;;;3.80;3.50;;;;;;;;;;5013878;28;20489;-59
2023/07/17 05:44:23;;;;;;;5.07;3.90;;;;;;;;;;5013973;28;20968;-59
2023/07/17 05:46:50;;;;;;;4.33;3.93;;;;;;;;;;5014080;28;20950;-58
2023/07/17 05:49:17;;;;;;;4.53;3.87;;;;;;;;;;5013942;28;21017;-58
2023/07/17 05:51:44;;;;;;;4.17;3.77;;;;;;;;;;5013801;28;20549;-58
2023/07/17 05:54:11;;;;;;;6.10;4.13;;;;;;;;;;5013830;28;20451;-59
2023/07/17 05:56:39;;;;;;;4.27;3.83;;;;;;;;;;5013579;28;20561;-58
2023/07/17 05:59:07;;;;;;;4.80;4.37;;;;;;;;;;5013948;28;20450;-58
2023/07/17 06:01:34;;;;;;;4.10;3.37;;;;;;;;;;5013734;28;20508;-58
2023/07/17 06:04:01;;;;;;;3.80;3.50;;;;;;;;;;5013664;28;20473;-58
2023/07/17 06:06:28;;;;;;;4.97;4.20;;;;;;;;;;5013579;28;21012;-58
2023/07/17 06:08:55;;;;;;;5.50;4.50;;;;;;;;;;5013409;28;20451;-59
2023/07/17 06:11:22;;;;;;;4.90;4.20;;;;;;;;;;5013770;28;20537;-58
2023/07/17 06:13:49;;;;;;;9.70;4.40;;;;;;;;;;5013659;28;20545;-59
2023/07/17 06:16:17;;;;;;;4.73;4.33;;;;;;;;;;5013557;28;20537;-58
2023/07/17 06:18:45;;;;;;;4.70;4.30;;;;;;;;;;5013642;28;20451;-58
2023/07/17 06:21:12;;;;;;;11.90;4.40;;;;;;;;;;5013245;28;20470;-58
2023/07/17 06:23:39;;;;;;;4.60;4.20;;;;;;;;;;5013364;28;20560;-58
2023/07/17 06:26:06;;;;;;;5.50;4.57;;;;;;;;;;5013416;28;20642;-58
2023/07/17 06:28:33;;;;;;;4.40;4.03;;;;;;;;;;5013229;28;20446;-58
2023/07/17 06:31:00;;;;;;;6.17;4.40;;;;;;;;;;5013317;28;20549;-58
2023/07/17 06:33:42;;;;;;;4.33;4.00;;;;;;;;;;5013318;28;20459;-60
2023/07/17 06:36:10;;;;;;;3.80;3.50;;;;;;;;;;5011031;28;20545;-58
2023/07/17 06:38:37;;;;;;;5.10;4.23;;;;;;;;;;5013362;28;20788;-58
2023/07/17 06:41:04;;;;;;;5.37;4.30;;;;;;;;;;5013253;28;20611;-58
2023/07/17 06:43:31;;;;;;;4.33;4.03;;;;;;;;;;5013145;28;20466;-58
2023/07/17 06:45:58;;;;;;;3.93;3.67;;;;;;;;;;5013043;28;20533;-58
2023/07/17 06:48:25;;;;;;;7.47;3.93;;;;;;;;;;5013041;28;20944;-58
2023/07/17 06:50:52;;;;;;;5.63;4.20;;;;;;;;;;5013002;28;20447;-58
2023/07/17 06:53:20;;;;;;;4.03;3.63;;;;;;;;;;5013052;28;20474;-59
2023/07/17 06:55:47;;;;;;;4.50;4.10;;;;;;;;;;5012804;28;20450;-58
2023/07/17 06:58:14;;;;;;;3.93;3.53;;;;;;;;;;5013171;28;20451;-58
2023/07/17 07:00:41;;;;;;;5.47;4.20;;;;;;;;;;5012943;28;20478;-58
2023/07/17 07:03:08;;;;;;;5.63;4.10;;;;;;;;;;5012918;28;20538;-58
2023/07/17 07:05:35;;;;;;;6.27;4.60;;;;;;;;;;5013148;28;20450;-58
2023/07/17 07:08:03;;;;;;;4.43;3.47;;;;;;;;;;5012812;28;20520;-60
2023/07/17 07:10:31;;;;;;;3.30;3.00;;;;;;;;;;5012867;28;20458;-59
2023/07/17 07:12:58;;;;;;;6.33;4.07;;;;;;;;;;5013018;28;20454;-59
2023/07/17 07:15:25;;;;;;;6.93;4.07;;;;;;;;;;5012764;28;20459;-59
2023/07/17 07:17:52;;;;;;;8.77;3.97;;;;;;;;;;5012811;28;20450;-59
2023/07/17 07:20:19;;;;;;;4.77;4.37;;;;;;;;;;5012675;28;20487;-59
2023/07/17 07:22:46;;;;;;;4.70;4.30;;;;;;;;;;5012781;28;20482;-59
2023/07/17 07:25:13;;;;;;;5.13;3.97;;;;;;;;;;5012771;28;20446;-59
2023/07/17 07:27:41;;;;;;;4.60;4.20;;;;;;;;;;5012731;28;20885;-59
2023/07/17 07:30:08;;;;;;;4.57;4.17;;;;;;;;;;5012509;28;20806;-60
2023/07/17 07:32:36;;;;;;;4.10;3.70;;;;;;;;;;5012622;28;20930;-56
2023/07/17 07:35:03;;;;;;;5.07;4.03;;;;;;;;;;5012633;28;20760;-58
2023/07/17 07:37:33;;;;;;;5.33;4.30;;;;;;;;;;5012702;28;20858;-55
2023/07/17 07:40:00;;;;;;;4.73;4.23;;;;;;;;;;5013979;28;20960;-58
2023/07/17 07:42:27;;;;;;;5.40;3.50;;;;;;;;;;5016256;28;20989;-58
2023/07/17 07:44:55;;;;;;;4.60;4.20;;;;;;;;;;5016140;28;20546;-58
2023/07/17 07:47:22;;;;;;;4.27;3.87;;;;;;;;;;5016140;28;20481;-58
2023/07/17 07:49:49;;;;;;;5.27;4.10;;;;;;;;;;5016146;28;20513;-59
2023/07/17 07:52:16;;;;;;;4.47;4.07;;;;;;;;;;5016008;28;20461;-53
2023/07/17 07:54:45;;;;;;;5.80;3.90;;;;;;;;;;5015851;28;20826;-57
2023/07/17 07:57:12;;;;;;;5.00;3.97;;;;;;;;;;5009935;28;20485;-55
2023/07/17 07:59:40;;;;;;;5.87;3.83;;;;;;;;;;5035848;28;20471;-56
2023/07/17 08:02:12;;;;;;;4.40;4.10;;;;;;;;;;5035563;28;20485;-55
2023/07/17 08:04:39;;;;;;;7.17;3.90;;;;;;;;;;5035546;28;20476;-57
2023/07/17 08:07:07;;;;;;;6.83;3.93;;;;;;;;;;5035499;28;20456;-57
2023/07/17 08:09:34;;;;;;;4.50;3.70;;;;;;;;;;5035422;28;20458;-58
2023/07/17 08:12:01;;;;;;;3.53;3.20;;;;;;;;;;5035426;28;20548;-58
2023/07/17 08:14:28;;;;;;;3.83;3.50;;;;;;;;;;5035529;28;20536;-58
2023/07/17 08:16:54;;;;;;;4.80;3.53;;;;;;;;;;5035272;28;20540;-55
2023/07/17 08:19:23;;;;;;;6.97;3.33;;;;;;;;;;5035332;28;20483;-57
2023/07/17 08:21:50;;;;;;;4.73;3.77;;;;;;;;;;5035042;28;21015;-57
2023/07/17 08:24:17;;;;;;;10.00;3.40;;;;;;;;;;5035055;28;20481;-58
2023/07/17 08:26:44;;;;;;;7.80;3.07;;;;;;;;;;5035280;28;20449;-60
2023/07/17 08:29:11;;;;;;;3.80;3.50;;;;;;;;;;5034990;28;20450;-58
2023/07/17 08:31:38;;;;;;;3.80;3.40;;;;;;;;;;5035123;28;20612;-59
2023/07/17 08:34:06;;;;;;;5.50;3.07;;;;;;;;;;5035093;28;20886;-59
2023/07/17 08:36:34;;;;;;;5.20;3.00;;;;;;;;;;5035005;28;20859;-58
2023/07/17 08:39:02;;;;;;;5.07;2.83;;;;;;;;;;5034895;28;20457;-59
2023/07/17 08:41:31;;;;;;;4.33;3.40;;;;;;;;;;5034957;28;20570;-56
2023/07/17 08:43:58;;;;;;;7.13;3.80;;;;;;;;;;5034974;28;20906;-58
2023/07/17 08:46:25;;;;;;;3.57;3.27;;;;;;;;;;5017116;28;20453;-58
2023/07/17 08:48:53;;;;;;;4.03;3.17;;;;;;;;;;5034893;28;20450;-53
2023/07/17 08:51:22;;;;;;;4.10;3.80;;;;;;;;;;5034601;28;20504;-56
2023/07/17 08:53:54;;;;;;;7.33;3.63;;;;;;;;;;5034839;28;20459;-56
2023/07/17 08:56:21;;;;;;;3.43;3.17;;;;;;;;;;5029581;28;20485;-56
2023/07/17 08:58:49;;;;;;;4.47;2.90;;;;;;;;;;5015173;28;20540;-55
2023/07/17 09:01:16;;;;;;;3.20;2.90;;;;;;;;;;5014846;28;20541;-57
2023/07/17 09:03:43;;;;;;;4.23;2.90;;;;;;;;;;5014737;28;20459;-57
2023/07/17 09:06:14;;;;;;;4.70;3.43;;;;;;;;;;5014655;28;20805;-56
2023/07/17 09:08:41;;;;;;;4.63;3.10;;;;;;;;;;5014820;28;20542;-56
2023/07/17 09:11:09;;;;;;;3.30;3.00;;;;;;;;;;5014682;28;20454;-55
2023/07/17 09:13:37;;;;;;;4.90;3.50;;;;;;;;;;5014580;28;20450;-56
2023/07/17 09:16:15;;;;;;;4.87;2.90;;;;;;;;;;5014879;28;20455;-58
2023/07/17 09:18:41;;;;;;;3.80;2.90;;;;;;;;;;5014435;28;20469;-58
2023/07/17 09:21:08;;;;;;;5.27;3.60;;;;;;;;;;5014398;28;20549;-55
2023/07/17 09:23:40;;;;;;;5.87;3.30;;;;;;;;;;5014352;28;20578;-56
2023/07/17 09:26:07;;;;;;;3.60;3.10;;;;;;;;;;5014401;28;20493;-57
2023/07/17 09:28:38;;;;;;;3.80;3.10;;;;;;;;;;5014368;28;20455;-57
2023/07/17 09:31:05;;;;;;;6.60;2.70;;;;;;;;;;5014092;28;20542;-57
2023/07/17 09:33:37;;;;;;;3.50;2.60;;;;;;;;;;5014239;28;20545;-57
2023/07/17 09:36:04;;;;;;;4.20;2.70;;;;;;;;;;5014193;28;20451;-57
2023/07/17 09:38:33;;;;;;;3.50;2.70;;;;;;;;;;5014089;28;21042;-57
2023/07/17 09:41:00;;;;;;;3.73;3.03;;;;;;;;;;5013756;28;20915;-58
2023/07/17 09:43:30;;;;;;;4.00;2.83;;;;;;;;;;5013661;28;20489;-58
2023/07/17 09:46:00;;;;;;;5.10;3.37;;;;;;;;;;5013921;28;20796;-57
2023/07/17 09:48:28;;;;;;;4.83;2.53;;;;;;;;;;5013892;28;20451;-57
2023/07/17 09:50:57;;;;;;;5.73;3.17;;;;;;;;;;5014151;28;20457;-58
2023/07/17 09:53:24;;;;;;;7.23;2.87;;;;;;;;;;5013302;28;20455;-58
2023/07/17 09:55:51;;;;;;;3.40;2.40;;;;;;;;;;5013567;28;20537;-58
2023/07/17 09:58:19;;;;;;;4.33;3.47;;;;;;;;;;5013717;28;20450;-58
2023/07/17 10:00:48;;;;;;;5.40;3.50;;;;;;;;;;5013760;28;20854;-56
2023/07/17 10:03:21;;;;;;;4.67;2.80;;;;;;;;;;5013224;28;20493;-57
2023/07/17 10:05:48;;;;;;;5.40;2.67;;;;;;;;;;5013677;28;20451;-58
2023/07/17 10:08:16;;;;;;;4.23;3.50;;;;;;;;;;5013616;28;20458;-56
2023/07/17 10:10:43;;;;;;;4.37;3.00;;;;;;;;;;5017801;28;20541;-56
2023/07/17 10:13:11;;;;;;;5.70;3.00;;;;;;;;;;5021922;28;20819;-56
2023/07/17 10:15:40;;;;;;;3.90;2.27;;;;;;;;;;5013392;28;20493;-58
2023/07/17 10:18:09;;;;;;;4.77;3.00;;;;;;;;;;5013434;28;20542;-58
2023/07/17 10:20:38;;;;;;;6.90;3.30;;;;;;;;;;5013322;28;20462;-58
2023/07/17 10:23:07;;;;;;;4.03;3.10;;;;;;;;;;5013095;28;20482;-55
2023/07/17 10:25:34;;;;;;;3.90;2.90;;;;;;;;;;5013700;28;20545;-53
2023/07/17 10:28:02;;;;;;;2.73;2.47;;;;;;;;;;5013473;28;20545;-55
2023/07/17 10:30:30;;;;;;;3.30;3.00;;;;;;;;;;5013329;28;20482;-57
2023/07/17 10:33:06;;;;;;;7.80;3.10;;;;;;;;;;5013192;28;20475;-56
2023/07/17 10:35:44;;;;;;;3.00;2.80;;;;;;;;;;5012839;28;20454;-57
2023/07/17 10:38:13;;;;;;;5.07;3.20;;;;;;;;;;5013260;28;20816;-56
2023/07/17 10:40:40;;;;;;;5.13;2.97;;;;;;;;;;5013213;28;20806;-55
2023/07/17 10:43:15;;;;;;;3.80;3.50;;;;;;;;;;5012756;28;20893;-58
2023/07/17 10:45:42;;;;;;;5.70;3.10;;;;;;;;;;5012839;28;20450;-56
2023/07/17 10:48:09;;;;;;;3.17;2.87;;;;;;;;;;5012957;28;20974;-56
2023/07/17 10:50:36;;;;;;;4.57;3.00;;;;;;;;;;5013008;28;20450;-56
2023/07/17 10:53:03;;;;;;;4.93;3.17;;;;;;;;;;5013073;28;20460;-56
2023/07/17 10:55:32;;;;;;;6.30;3.33;;;;;;;;;;5013173;28;20865;-55
2023/07/17 10:57:59;;;;;;;7.50;3.20;;;;;;;;;;5012828;28;20563;-55
2023/07/17 11:00:26;;;;;;;3.73;3.10;;;;;;;;;;5012929;28;20896;-58
2023/07/17 11:02:53;;;;;;;4.20;3.00;;;;;;;;;;5012527;28;20851;-53
2023/07/17 11:05:20;;;;;;;4.40;2.50;;;;;;;;;;5012763;28;20451;-54
2023/07/17 11:07:47;;;;;;;5.30;3.00;;;;;;;;;;5012789;28;20489;-56
2023/07/17 11:10:14;;;;;;;3.63;3.00;;;;;;;;;;5012833;28;20534;-58
2023/07/17 11:12:43;;;;;;;7.07;3.03;;;;;;;;;;5012844;28;20889;-57
2023/07/17 11:15:17;;;;;;;3.60;2.97;;;;;;;;;;5014396;28;20489;-58
2023/07/17 11:17:44;;;;;;;4.50;2.80;;;;;;;;;;5016714;28;20542;-58
2023/07/17 11:20:11;;;;;;;5.23;2.70;;;;;;;;;;5016660;28;20542;-55
2023/07/17 11:22:40;;;;;;;3.63;2.50;;;;;;;;;;5016582;28;20577;-57
2023/07/17 11:25:08;;;;;;;5.10;3.13;;;;;;;;;;5016727;28;20801;-58
2023/07/17 11:27:35;;;;;;;3.53;2.50;;;;;;;;;;5016398;28;20973;-58
2023/07/17 11:30:14;;;;;;;5.17;2.27;;;;;;;;;;5016470;28;20541;-58
2023/07/17 11:32:41;;;;;;;4.17;2.70;;;;;;;;;;5016548;28;20458;-57
2023/07/17 11:35:12;;;;;;;4.00;3.10;;;;;;;;;;5016307;28;20457;-56
2023/07/17 11:37:40;;;;;;;4.07;2.83;;;;;;;;;;5016325;28;20455;-57
2023/07/17 11:40:09;;;;;;;2.77;2.30;;;;;;;;;;5016001;28;20534;-56
2023/07/17 11:42:56;;;;;;;5.70;3.77;;;;;;;;;;5016020;28;20485;-57
2023/07/17 11:45:26;;;;;;;3.80;2.60;;;;;;;;;;5016092;28;20454;-56
2023/07/17 11:47:53;;;;;;;5.17;2.50;;;;;;;;;;5016071;28;20536;-57
2023/07/17 11:50:21;;;;;;;3.93;2.40;;;;;;;;;;5015997;28;20451;-57
2023/07/17 11:52:48;;;;;;;2.40;2.20;;;;;;;;;;5015817;28;20549;-57
2023/07/17 11:55:15;;;;;;;8.10;2.80;;;;;;;;;;5016038;28;20458;-57
2023/07/17 11:57:50;;;;;;;3.03;2.73;;;;;;;;;;5015554;28;20485;-56
2023/07/17 12:00:18;;;;;;;3.07;2.37;;;;;;;;;;5016010;28;20453;-58
2023/07/17 12:02:49;;;;;;;2.43;2.23;;;;;;;;;;5015691;28;20561;-58
2023/07/17 12:05:17;;;;;;;4.33;2.13;;;;;;;;;;5015703;28;20487;-58
2023/07/17 12:07:44;;;;;;;4.77;2.37;;;;;;;;;;5015845;28;20460;-57
2023/07/17 12:10:11;;;;;;;4.10;2.13;;;;;;;;;;5015833;28;20450;-58
2023/07/17 12:12:39;;;;;;;4.37;2.53;;;;;;;;;;5015701;28;20887;-59
2023/07/17 12:15:07;;;;;;;3.77;2.23;;;;;;;;;;5015741;28;20486;-58
2023/07/17 12:17:34;;;;;;;5.83;2.47;;;;;;;;;;5015562;28;20450;-59
2023/07/17 12:20:02;;;;;;;6.10;2.67;;;;;;;;;;5015755;28;20447;-57
2023/07/17 12:22:30;;;;;;;3.03;2.53;;;;;;;;;;5015543;28;20566;-58
2023/07/17 12:24:57;;;;;;;3.00;2.67;;;;;;;;;;5015366;28;20455;-58
2023/07/17 12:27:24;;;;;;;2.80;2.60;;;;;;;;;;5015208;28;20738;-58
2023/07/17 12:29:51;;;;;;;3.70;2.43;;;;;;;;;;5015445;28;20457;-51
2023/07/17 12:32:18;;;;;;;2.50;1.93;;;;;;;;;;5015323;28;20545;-56
2023/07/17 12:34:45;;;;;;;4.10;2.50;;;;;;;;;;5015347;28;20486;-57
2023/07/17 12:37:20;;;;;;;4.53;2.57;;;;;;;;;;5015453;28;20545;-57
2023/07/17 12:39:47;;;;;;;3.43;2.70;;;;;;;;;;5015266;28;20949;-58
2023/07/17 12:42:14;;;;;;;3.00;2.53;;;;;;;;;;5015143;28;20554;-58
2023/07/17 12:44:41;;;;;;;3.17;2.40;;;;;;;;;;5017590;28;20853;-58
2023/07/17 12:47:08;;;;;;;2.53;2.33;;;;;;;;;;5026108;28;20442;-58
2023/07/17 12:49:35;;;;;;;2.47;2.20;;;;;;;;;;5034816;28;21139;-58
2023/07/17 12:52:03;;;;;;;2.50;2.30;;;;;;;;;;5034781;28;20542;-58
2023/07/17 12:54:32;;;;;;;3.20;2.87;;;;;;;;;;5034765;28;20458;-58
2023/07/17 12:56:59;;;;;;;2.50;2.03;;;;;;;;;;5034598;28;20480;-58
2023/07/17 12:59:26;;;;;;;3.93;2.70;;;;;;;;;;5034454;28;20799;-58
2023/07/17 13:01:53;;;;;;;3.80;2.40;;;;;;;;;;5034773;28;20536;-58
2023/07/17 13:04:20;;;;;;;2.90;2.53;;;;;;;;;;5034632;28;20486;-58
2023/07/17 13:06:47;;;;;;;2.50;2.30;;;;;;;;;;5034145;28;20967;-58
2023/07/17 13:09:14;;;;;;;5.73;2.60;;;;;;;;;;5034542;28;20816;-58
2023/07/17 13:11:42;;;;;;;4.13;2.50;;;;;;;;;;5034469;28;20449;-59
2023/07/17 13:14:10;;;;;;;3.53;2.23;;;;;;;;;;5034448;28;20445;-57
2023/07/17 13:16:36;;;;;;;2.70;2.50;;;;;;;;;;5034465;28;20485;-57
2023/07/17 13:19:03;;;;;;;3.40;2.30;;;;;;;;;;5034327;28;20454;-57
2023/07/17 13:21:30;;;;;;;3.30;2.50;;;;;;;;;;5034214;28;20485;-56
2023/07/17 13:23:58;;;;;;;3.30;2.77;;;;;;;;;;5043938;28;20522;-58
2023/07/17 13:26:27;;;;;;;2.80;2.60;;;;;;;;;;5054060;28;20534;-58
2023/07/17 13:28:55;;;;;;;3.77;2.27;;;;;;;;;;5054196;28;20839;-57
2023/07/17 13:31:22;;;;;;;4.20;2.17;;;;;;;;;;5028633;28;20442;-57
2023/07/17 13:33:49;;;;;;;4.37;2.43;;;;;;;;;;5022534;28;20438;-56
2023/07/17 13:36:16;;;;;;;2.90;2.47;;;;;;;;;;5021053;28;20454;-57
2023/07/17 13:38:44;;;;;;;2.63;2.37;;;;;;;;;;5013402;28;20533;-57
2023/07/17 13:41:12;;;;;;;8.77;2.57;;;;;;;;;;5014048;28;20450;-58
2023/07/17 13:43:39;;;;;;;3.90;2.70;;;;;;;;;;5014198;28;20914;-57
2023/07/17 13:46:07;;;;;;;2.90;2.47;;;;;;;;;;5014036;28;20956;-58
2023/07/17 13:48:34;;;;;;;3.00;2.53;;;;;;;;;;5013956;28;20541;-58
2023/07/17 13:51:02;;;;;;;6.33;2.57;;;;;;;;;;5013685;28;20458;-56
2023/07/17 13:53:29;;;;;;;4.23;2.90;;;;;;;;;;5013876;28;20451;-58
2023/07/17 13:55:56;;;;;;;2.80;2.50;;;;;;;;;;5013927;28;20451;-56
2023/07/17 13:58:23;;;;;;;2.60;2.40;;;;;;;;;;5013832;28;20954;-59
2023/07/17 14:00:50;;;;;;;3.03;2.50;;;;;;;;;;5013833;28;20456;-58
2023/07/17 14:03:18;;;;;;;7.80;2.57;;;;;;;;;;5013669;28;20482;-57
2023/07/17 14:05:46;;;;;;;2.60;2.27;;;;;;;;;;5013691;28;20450;-58
2023/07/17 14:08:13;;;;;;;3.47;2.13;;;;;;;;;;5013739;28;20451;-57
2023/07/17 14:10:40;;;;;;;3.30;2.60;;;;;;;;;;5013829;28;20796;-57
2023/07/17 14:13:07;;;;;;;3.23;2.40;;;;;;;;;;5013619;28;20462;-58
2023/07/17 14:15:34;;;;;;;6.50;2.77;;;;;;;;;;5013643;28;20469;-57
2023/07/17 14:18:01;;;;;;;3.70;2.40;;;;;;;;;;5013442;28;20961;-57
2023/07/17 14:20:29;;;;;;;3.30;2.17;;;;;;;;;;5013403;28;20453;-58
2023/07/17 14:22:56;;;;;;;3.03;2.60;;;;;;;;;;5013473;28;20457;-57
2023/07/17 14:25:24;;;;;;;3.10;2.50;;;;;;;;;;5013623;28;20620;-56
2023/07/17 14:27:50;;;;;;;3.10;2.70;;;;;;;;;;5013502;28;20447;-57
2023/07/17 14:30:18;;;;;;;4.40;2.63;;;;;;;;;;5013436;28;20569;-57
2023/07/17 14:32:45;;;;;;;4.30;2.63;;;;;;;;;;5013254;28;20454;-57
2023/07/17 14:35:12;;;;;;;2.30;2.10;;;;;;;;;;5013761;28;20446;-57
2023/07/17 14:37:40;;;;;;;2.70;2.50;;;;;;;;;;5013482;28;20933;-56
2023/07/17 14:40:08;;;;;;;4.90;3.07;;;;;;;;;;5013411;28;20489;-57
2023/07/17 14:42:35;;;;;;;5.50;2.53;;;;;;;;;;5013258;28;20473;-56
2023/07/17 14:45:01;;;;;;;4.87;2.80;;;;;;;;;;5013088;28;20493;-57